Time;durP1;ratioP1;P1;durP2;ratioP2;P2;SDS_P1;SDS_P2;PMS_P1;PMS_P2;Temp;Humidity;BMP_temperature;BMP_pressure;BME280_temperature;BME280_humidity;BME280_pressure;Samples;Min_cycle;Max_cycle;Signal;HPM_P1;HPM_P2
2023/05/07 00:01:56;;;;;;;15.00;9.02;;;15.60;99.90;;;;;;5040104;28;20014;-73
2023/05/07 00:04:22;;;;;;;18.30;9.40;;;15.60;99.90;;;;;;5039528;28;20076;-73
2023/05/07 00:06:48;;;;;;;16.40;8.95;;;15.50;99.90;;;;;;5038199;28;20030;-73
2023/05/07 00:09:13;;;;;;;9.88;7.97;;;15.50;99.90;;;;;;5039628;28;20029;-73
2023/05/07 00:11:40;;;;;;;15.65;9.07;;;15.50;99.90;;;;;;5038208;28;20029;-73
2023/05/07 00:14:05;;;;;;;14.00;8.65;;;15.50;99.90;;;;;;5038228;28;20021;-73
2023/05/07 00:16:31;;;;;;;16.95;9.27;;;15.50;99.90;;;;;;5039279;28;20029;-73
2023/05/07 00:18:57;;;;;;;16.33;10.13;;;15.50;99.90;;;;;;5037735;28;20069;-73
2023/05/07 00:21:26;;;;;;;14.27;9.57;;;15.50;99.90;;;;;;5039936;28;20534;-73
2023/05/07 00:23:52;;;;;;;23.58;8.45;;;15.50;99.90;;;;;;5038489;28;20025;-73
2023/05/07 00:26:18;;;;;;;18.23;10.13;;;15.50;99.90;;;;;;5039421;28;20024;-73
2023/05/07 00:28:43;;;;;;;19.45;9.45;;;15.50;99.90;;;;;;5039319;28;20105;-73
2023/05/07 00:31:09;;;;;;;16.33;9.60;;;15.50;99.90;;;;;;5039286;28;20086;-73
2023/05/07 00:33:35;;;;;;;20.98;8.68;;;15.50;99.90;;;;;;5038868;28;20026;-73
2023/05/07 00:36:01;;;;;;;19.52;8.98;;;15.50;99.90;;;;;;5039250;28;20077;-74
2023/05/07 00:38:27;;;;;;;19.00;9.48;;;15.50;99.90;;;;;;5037733;28;20026;-73
2023/05/07 00:40:53;;;;;;;13.35;9.40;;;15.50;99.90;;;;;;5034935;28;20028;-73
2023/05/07 00:43:18;;;;;;;14.32;8.90;;;15.50;99.90;;;;;;5039046;28;20029;-73
2023/05/07 00:45:44;;;;;;;14.23;9.40;;;15.50;99.90;;;;;;5038867;28;20017;-73
2023/05/07 00:48:10;;;;;;;18.17;9.25;;;15.50;99.90;;;;;;5037622;28;20478;-73
2023/05/07 00:50:35;;;;;;;14.65;9.48;;;15.50;99.90;;;;;;5038998;28;20033;-73
2023/05/07 00:53:02;;;;;;;12.68;9.07;;;15.50;99.90;;;;;;5039089;28;20043;-73
2023/05/07 00:55:28;;;;;;;18.23;8.57;;;15.50;99.90;;;;;;5038752;28;20105;-73
2023/05/07 00:57:54;;;;;;;21.25;9.32;;;15.50;99.90;;;;;;5038678;28;20025;-73
2023/05/07 01:00:19;;;;;;;19.02;10.10;;;15.50;99.90;;;;;;5037299;28;20022;-73
2023/05/07 01:02:46;;;;;;;13.73;9.30;;;15.50;99.90;;;;;;5038610;28;20738;-73
2023/05/07 01:05:14;;;;;;;15.48;9.32;;;15.50;99.90;;;;;;5038395;28;20490;-73
2023/05/07 01:07:41;;;;;;;16.92;8.57;;;15.50;99.90;;;;;;5037189;28;20036;-72
2023/05/07 01:10:08;;;;;;;14.43;8.00;;;15.50;99.90;;;;;;5038527;28;20111;-73
2023/05/07 01:12:39;;;;;;;15.80;8.25;;;15.50;99.90;;;;;;5037183;28;20022;-73
2023/05/07 01:15:06;;;;;;;14.20;8.07;;;15.50;99.90;;;;;;5038569;28;20013;-73
2023/05/07 01:17:40;;;;;;;14.02;8.10;;;15.50;99.90;;;;;;5036794;28;20096;-72
2023/05/07 01:20:07;;;;;;;17.02;8.70;;;15.50;99.90;;;;;;5038227;28;20504;-72
2023/05/07 01:22:34;;;;;;;14.25;7.78;;;15.50;99.90;;;;;;5038812;28;20037;-73
2023/05/07 01:25:01;;;;;;;15.32;7.60;;;15.50;99.90;;;;;;5038156;28;20071;-72
2023/05/07 01:27:27;;;;;;;14.32;8.30;;;15.50;99.90;;;;;;5038292;28;20375;-73
2023/05/07 01:29:53;;;;;;;13.80;8.30;;;15.50;99.90;;;;;;5038130;28;20021;-72
2023/05/07 01:32:30;;;;;;;15.02;7.57;;;15.50;99.90;;;;;;5038036;28;20041;-72
2023/05/07 01:34:58;;;;;;;19.83;7.90;;;15.50;99.90;;;;;;5037661;28;20481;-72
2023/05/07 01:37:25;;;;;;;16.92;8.57;;;15.50;99.90;;;;;;5036696;28;20037;-72
2023/05/07 01:39:52;;;;;;;13.32;5.78;;;15.60;99.90;;;;;;5033747;28;20041;-73
2023/05/07 01:42:18;;;;;;;22.80;7.90;;;15.50;99.90;;;;;;5038090;28;20018;-73
2023/05/07 01:44:44;;;;;;;12.05;7.07;;;15.50;99.90;;;;;;5033788;28;20010;-72
2023/05/07 01:47:10;;;;;;;22.65;7.30;;;15.50;99.90;;;;;;5038143;28;20033;-72
2023/05/07 01:49:36;;;;;;;14.10;6.32;;;15.50;99.90;;;;;;5037612;28;20389;-72
2023/05/07 01:52:02;;;;;;;14.02;6.47;;;15.50;99.90;;;;;;5038121;28;20055;-72
2023/05/07 01:54:28;;;;;;;17.75;6.93;;;15.40;99.90;;;;;;5036561;28;20057;-73
2023/05/07 01:56:55;;;;;;;23.10;7.18;;;15.40;99.90;;;;;;5037658;28;20053;-73
2023/05/07 01:59:21;;;;;;;17.20;6.13;;;15.40;99.90;;;;;;5037617;28;20413;-73
2023/05/07 02:01:47;;;;;;;23.08;6.78;;;15.40;99.90;;;;;;5037608;28;20030;-73
2023/05/07 02:04:13;;;;;;;11.65;6.50;;;15.30;99.90;;;;;;5037092;28;20024;-72
2023/05/07 02:06:38;;;;;;;10.38;5.70;;;15.40;99.90;;;;;;5036221;28;20060;-72
2023/05/07 02:09:04;;;;;;;11.40;6.85;;;15.40;99.90;;;;;;5037140;28;20096;-73
2023/05/07 02:11:30;;;;;;;23.13;7.20;;;15.40;99.90;;;;;;5037515;28;20108;-73
2023/05/07 02:13:55;;;;;;;14.65;6.45;;;15.30;99.90;;;;;;5035465;28;20399;-73
2023/05/07 02:16:22;;;;;;;11.98;5.72;;;15.30;99.90;;;;;;5035939;28;20078;-73
2023/05/07 02:18:48;;;;;;;13.35;5.82;;;15.30;99.90;;;;;;5036713;28;20041;-72
2023/05/07 02:21:14;;;;;;;11.32;5.78;;;15.30;99.90;;;;;;5037739;28;20032;-72
2023/05/07 02:23:39;;;;;;;20.58;6.78;;;15.30;99.90;;;;;;5036014;28;20075;-73
2023/05/07 02:26:05;;;;;;;18.95;6.10;;;15.20;99.90;;;;;;5037307;28;20060;-73
2023/05/07 02:28:31;;;;;;;15.88;7.68;;;15.20;99.90;;;;;;5036786;28;20040;-73
2023/05/07 02:30:58;;;;;;;15.45;6.25;;;15.20;99.90;;;;;;5037190;28;20040;-73
2023/05/07 02:33:24;;;;;;;12.00;6.10;;;15.20;99.90;;;;;;5036357;28;20032;-73
2023/05/07 02:35:51;;;;;;;13.48;5.10;;;15.20;99.90;;;;;;5035668;28;20040;-72
2023/05/07 02:38:17;;;;;;;13.63;5.45;;;15.10;99.90;;;;;;5036810;28;20014;-73
2023/05/07 02:40:43;;;;;;;20.55;6.50;;;15.10;99.90;;;;;;5036966;28;20087;-73
2023/05/07 02:43:09;;;;;;;14.38;6.35;;;15.10;99.90;;;;;;5036649;28;20029;-72
2023/05/07 02:45:36;;;;;;;9.15;5.70;;;15.10;99.90;;;;;;5037020;28;20588;-73
2023/05/07 02:48:01;;;;;;;10.73;5.38;;;15.10;99.90;;;;;;5036722;28;20072;-73
2023/05/07 02:50:27;;;;;;;14.57;5.80;;;15.10;99.90;;;;;;5036942;28;20033;-73
2023/05/07 02:52:53;;;;;;;15.23;6.05;;;15.00;99.90;;;;;;5036876;28;20516;-73
2023/05/07 02:55:18;;;;;;;12.95;6.30;;;15.00;99.90;;;;;;5036870;28;20113;-73
2023/05/07 02:57:44;;;;;;;18.25;6.93;;;15.00;99.90;;;;;;5036552;28;20104;-73
2023/05/07 03:00:14;;;;;;;20.45;6.78;;;15.00;99.90;;;;;;5036579;28;20029;-73
2023/05/07 03:02:40;;;;;;;16.90;5.75;;;14.90;99.90;;;;;;5036233;28;20017;-73
2023/05/07 03:05:06;;;;;;;15.48;6.18;;;14.90;99.90;;;;;;5035937;28;20083;-73
2023/05/07 03:07:32;;;;;;;18.02;6.22;;;14.90;99.90;;;;;;5035922;28;20087;-73
2023/05/07 03:09:58;;;;;;;12.90;5.82;;;14.90;99.90;;;;;;5035358;28;20120;-73
2023/05/07 03:12:23;;;;;;;12.73;6.05;;;14.90;99.90;;;;;;5036117;28;20536;-73
2023/05/07 03:14:49;;;;;;;18.67;5.97;;;14.90;99.90;;;;;;5035279;28;20030;-73
2023/05/07 03:17:16;;;;;;;14.02;5.68;;;14.90;99.90;;;;;;5036057;28;20041;-73
2023/05/07 03:19:41;;;;;;;18.25;5.95;;;14.90;99.90;;;;;;5036413;28;20022;-73
2023/05/07 03:22:07;;;;;;;13.90;7.25;;;14.90;99.90;;;;;;5036528;28;20045;-73
2023/05/07 03:24:33;;;;;;;14.40;5.75;;;14.80;99.90;;;;;;5036626;28;20025;-73
2023/05/07 03:26:58;;;;;;;16.63;5.90;;;14.90;99.90;;;;;;5038921;28;20612;-73
2023/05/07 03:29:24;;;;;;;14.95;6.18;;;14.80;99.90;;;;;;5040738;28;20033;-73
2023/05/07 03:31:50;;;;;;;18.13;5.72;;;14.90;99.90;;;;;;5040280;28;20644;-73
2023/05/07 03:34:16;;;;;;;19.63;6.43;;;14.90;99.90;;;;;;5040187;28;20486;-73
2023/05/07 03:36:42;;;;;;;14.80;6.75;;;14.90;99.90;;;;;;5038663;28;20022;-73
2023/05/07 03:39:08;;;;;;;23.40;6.25;;;14.90;99.90;;;;;;5040439;28;20184;-73
2023/05/07 03:41:34;;;;;;;16.33;6.50;;;14.90;99.90;;;;;;5040038;28;20018;-73
2023/05/07 03:44:00;;;;;;;19.80;6.82;;;15.00;99.90;;;;;;5038985;28;20057;-73
2023/05/07 03:46:26;;;;;;;18.88;7.05;;;15.00;99.90;;;;;;5039993;28;20027;-73
2023/05/07 03:48:52;;;;;;;19.38;6.65;;;14.90;99.90;;;;;;5040010;28;20104;-73
2023/05/07 03:51:17;;;;;;;17.48;5.13;;;15.00;99.90;;;;;;5040312;28;20060;-73
2023/05/07 03:53:43;;;;;;;20.67;6.97;;;15.00;99.90;;;;;;5040581;28;20040;-72
2023/05/07 03:56:09;;;;;;;14.65;5.95;;;15.00;99.90;;;;;;5039703;28;20037;-73
2023/05/07 03:58:35;;;;;;;14.93;6.30;;;14.90;99.90;;;;;;5040277;28;20022;-73
2023/05/07 04:01:00;;;;;;;20.77;6.75;;;14.90;99.90;;;;;;5038723;28;20029;-73
2023/05/07 04:03:26;;;;;;;15.55;6.40;;;15.00;99.90;;;;;;5039846;28;20028;-72
2023/05/07 04:05:52;;;;;;;18.60;6.30;;;15.00;99.90;;;;;;5038762;28;20040;-73
2023/05/07 04:08:17;;;;;;;13.80;5.65;;;15.00;99.90;;;;;;5040075;28;20389;-73
2023/05/07 04:10:43;;;;;;;23.67;6.50;;;14.90;99.90;;;;;;5039884;28;20097;-73
2023/05/07 04:13:09;;;;;;;13.05;5.75;;;14.90;99.90;;;;;;5040052;28;20096;-73
2023/05/07 04:15:35;;;;;;;15.85;5.97;;;14.90;99.90;;;;;;5038531;28;20080;-73
2023/05/07 04:18:01;;;;;;;17.60;5.88;;;14.90;99.90;;;;;;5039136;28;20038;-73
2023/05/07 04:20:27;;;;;;;13.75;5.90;;;14.90;99.90;;;;;;5038207;28;20543;-73
2023/05/07 04:22:53;;;;;;;18.73;6.30;;;14.90;99.90;;;;;;5037359;28;20024;-73
2023/05/07 04:25:18;;;;;;;18.15;6.93;;;14.90;99.90;;;;;;5037140;28;20041;-72
2023/05/07 04:27:44;;;;;;;15.45;6.07;;;14.90;99.90;;;;;;5038642;28;20026;-72
2023/05/07 04:30:11;;;;;;;15.68;5.45;;;14.90;99.90;;;;;;5038281;28;20029;-70
2023/05/07 04:32:37;;;;;;;12.48;6.55;;;14.90;99.90;;;;;;5038557;28;20382;-72
2023/05/07 04:35:03;;;;;;;14.50;5.78;;;14.90;99.90;;;;;;5036194;28;20029;-73
2023/05/07 04:37:28;;;;;;;11.82;6.18;;;14.90;99.90;;;;;;5037241;28;20037;-73
2023/05/07 04:39:54;;;;;;;13.90;5.07;;;14.90;99.90;;;;;;5038170;28;20049;-73
2023/05/07 04:42:20;;;;;;;15.55;5.85;;;14.90;99.90;;;;;;5038499;28;20036;-71
2023/05/07 04:44:45;;;;;;;12.32;5.30;;;14.90;99.90;;;;;;5038089;28;20032;-73
2023/05/07 04:47:12;;;;;;;16.15;5.57;;;14.90;99.90;;;;;;5038414;28;20036;-72
2023/05/07 04:49:41;;;;;;;12.95;5.70;;;14.90;99.90;;;;;;5037853;28;20049;-73
2023/05/07 04:52:06;;;;;;;18.17;6.05;;;14.90;99.90;;;;;;5038210;28;20045;-73
2023/05/07 04:54:32;;;;;;;15.30;5.30;;;14.90;99.90;;;;;;5038217;28;20355;-72
2023/05/07 04:56:57;;;;;;;11.48;4.93;;;15.00;99.90;;;;;;5037932;28;20033;-72
2023/05/07 04:59:23;;;;;;;14.80;6.03;;;15.00;99.90;;;;;;5038083;28;20021;-73
2023/05/07 05:01:49;;;;;;;16.48;5.13;;;14.90;99.90;;;;;;5038113;28;20025;-73
2023/05/07 05:04:14;;;;;;;10.38;4.90;;;15.00;99.90;;;;;;5037490;28;20061;-73
2023/05/07 05:06:40;;;;;;;12.43;5.85;;;15.00;99.90;;;;;;5038067;28;20037;-72
2023/05/07 05:09:06;;;;;;;15.52;5.30;;;15.00;99.90;;;;;;5037767;28;20017;-72
2023/05/07 05:11:32;;;;;;;11.15;4.97;;;15.00;99.90;;;;;;5038098;28;20026;-73
2023/05/07 05:13:59;;;;;;;13.50;5.43;;;15.00;99.90;;;;;;5037565;28;20061;-73
2023/05/07 05:16:25;;;;;;;15.35;5.47;;;15.00;99.90;;;;;;5037928;28;20036;-73
2023/05/07 05:18:52;;;;;;;16.92;7.07;;;15.00;99.90;;;;;;4992037;28;1326375;-72
2023/05/07 05:21:17;;;;;;;11.40;5.32;;;15.00;99.90;;;;;;5038946;28;20060;-72
2023/05/07 05:23:43;;;;;;;19.08;5.45;;;15.00;99.90;;;;;;5038587;28;20018;-73
2023/05/07 05:26:09;;;;;;;12.43;5.47;;;15.00;99.90;;;;;;5037398;28;20040;-72
2023/05/07 05:28:34;;;;;;;20.23;5.65;;;14.90;99.90;;;;;;5038525;28;20034;-70
2023/05/07 05:31:00;;;;;;;13.38;4.40;;;15.00;99.90;;;;;;5037197;28;20075;-72
2023/05/07 05:33:26;;;;;;;19.45;4.85;;;15.00;99.90;;;;;;5033378;28;20033;-72
2023/05/07 05:35:51;;;;;;;16.20;4.85;;;14.90;99.90;;;;;;5038519;28;20482;-73
2023/05/07 05:38:17;;;;;;;14.00;4.43;;;14.90;99.90;;;;;;5038443;28;20022;-72
2023/05/07 05:40:43;;;;;;;15.38;5.85;;;14.90;99.90;;;;;;5038425;28;20038;-72
2023/05/07 05:43:08;;;;;;;19.42;5.28;;;15.00;99.90;;;;;;5038185;28;20028;-73
2023/05/07 05:45:34;;;;;;;15.43;5.50;;;14.90;99.90;;;;;;5037058;28;20493;-72
2023/05/07 05:48:00;;;;;;;15.07;4.70;;;14.90;99.90;;;;;;5037350;28;20497;-72
2023/05/07 05:50:26;;;;;;;12.60;5.00;;;14.90;99.90;;;;;;5036751;28;20398;-72
2023/05/07 05:52:51;;;;;;;16.70;4.93;;;15.00;99.90;;;;;;5038049;28;20022;-71
2023/05/07 05:55:17;;;;;;;15.05;5.45;;;15.00;99.90;;;;;;5038190;28;20029;-72
2023/05/07 05:57:43;;;;;;;13.20;6.18;;;15.00;99.90;;;;;;5039790;28;20023;-71
2023/05/07 06:00:09;;;;;;;15.00;4.55;;;15.00;99.90;;;;;;5037709;28;20026;-70
2023/05/07 06:02:35;;;;;;;16.00;5.18;;;15.10;99.90;;;;;;5037723;28;20025;-72
2023/05/07 06:05:00;;;;;;;15.05;4.93;;;15.20;99.90;;;;;;5037292;28;20036;-72
2023/05/07 06:07:26;;;;;;;13.65;4.53;;;15.20;99.90;;;;;;5037614;28;20033;-71
2023/05/07 06:09:52;;;;;;;11.98;5.00;;;15.20;99.90;;;;;;5037689;28;20109;-72
2023/05/07 06:12:17;;;;;;;14.98;5.50;;;15.30;99.90;;;;;;5037687;28;20486;-71
2023/05/07 06:14:43;;;;;;;11.45;5.20;;;15.30;99.90;;;;;;5037588;28;20090;-72
2023/05/07 06:17:09;;;;;;;14.52;5.07;;;15.30;99.90;;;;;;5037330;28;20512;-71
2023/05/07 06:19:35;;;;;;;15.48;6.53;;;15.30;99.90;;;;;;5037266;28;20098;-71
2023/05/07 06:22:01;;;;;;;14.30;5.65;;;15.30;99.90;;;;;;5037617;28;20025;-71
2023/05/07 06:24:27;;;;;;;18.17;5.40;;;15.30;99.90;;;;;;5037495;28;20014;-71
2023/05/07 06:26:53;;;;;;;12.70;5.50;;;15.30;99.90;;;;;;5037256;28;21298;-71
2023/05/07 06:29:18;;;;;;;15.48;5.13;;;15.20;99.90;;;;;;5036008;28;20029;-71
2023/05/07 06:31:44;;;;;;;13.50;5.03;;;15.30;99.90;;;;;;5022173;28;20537;-72
2023/05/07 06:34:13;;;;;;;15.82;6.05;;;15.30;99.90;;;;;;5017556;28;20022;-71
2023/05/07 06:36:40;;;;;;;15.45;5.05;;;15.30;99.90;;;;;;5033119;28;20037;-71
2023/05/07 06:39:05;;;;;;;13.30;5.45;;;15.30;99.90;;;;;;5037191;28;20507;-71
2023/05/07 06:41:31;;;;;;;14.75;5.50;;;15.40;99.90;;;;;;5035147;28;20393;-71
2023/05/07 06:43:57;;;;;;;15.63;4.60;;;15.30;99.90;;;;;;5037059;28;20022;-71
2023/05/07 06:46:22;;;;;;;11.85;5.35;;;15.30;99.90;;;;;;5037050;28;20026;-71
2023/05/07 06:48:48;;;;;;;17.17;5.38;;;15.30;99.90;;;;;;5036952;28;20068;-71
2023/05/07 06:51:14;;;;;;;13.57;5.07;;;15.30;99.90;;;;;;5037089;28;20029;-71
2023/05/07 06:53:40;;;;;;;20.08;6.45;;;15.30;99.90;;;;;;5037098;28;20029;-71
2023/05/07 06:56:06;;;;;;;12.30;4.55;;;15.30;99.90;;;;;;5037024;28;20093;-71
2023/05/07 06:58:31;;;;;;;17.27;5.78;;;15.30;99.90;;;;;;5035604;28;20030;-71
2023/05/07 07:00:57;;;;;;;12.10;5.75;;;15.30;99.90;;;;;;5036875;28;20049;-71
2023/05/07 07:03:23;;;;;;;16.08;5.57;;;15.30;99.90;;;;;;5036591;28;20444;-70
2023/05/07 07:05:52;;;;;;;16.80;5.10;;;15.40;99.90;;;;;;5036961;28;20032;-71
2023/05/07 07:08:18;;;;;;;9.70;4.22;;;15.50;99.90;;;;;;5036472;28;20017;-71
2023/05/07 07:10:44;;;;;;;10.77;4.75;;;15.60;99.90;;;;;;5036991;28;20600;-71
2023/05/07 07:13:09;;;;;;;15.85;5.93;;;15.60;99.90;;;;;;5035428;28;20021;-71
2023/05/07 07:15:35;;;;;;;17.25;5.30;;;15.70;99.90;;;;;;5036786;28;20022;-70
2023/05/07 07:18:01;;;;;;;18.27;5.30;;;15.80;99.90;;;;;;5035101;28;20079;-71
2023/05/07 07:20:26;;;;;;;14.82;5.35;;;15.90;99.90;;;;;;5036423;28;20029;-70
2023/05/07 07:22:52;;;;;;;18.75;4.90;;;15.90;99.90;;;;;;5036930;28;20101;-70
2023/05/07 07:25:18;;;;;;;15.18;5.07;;;16.00;99.90;;;;;;5034592;28;20052;-70
2023/05/07 07:27:43;;;;;;;14.30;4.45;;;16.00;99.90;;;;;;5036544;28;20116;-71
2023/05/07 07:30:09;;;;;;;15.65;4.95;;;15.90;99.90;;;;;;5034161;28;20053;-70
2023/05/07 07:32:35;;;;;;;14.95;5.25;;;15.90;99.90;;;;;;5032953;28;20021;-70
2023/05/07 07:35:01;;;;;;;17.88;5.93;;;15.80;99.90;;;;;;5036397;28;20056;-70
2023/05/07 07:37:27;;;;;;;16.48;5.28;;;15.80;99.90;;;;;;5026997;28;20025;-71
2023/05/07 07:39:52;;;;;;;13.90;4.18;;;15.90;99.90;;;;;;5036648;28;20033;-73
2023/05/07 07:42:18;;;;;;;12.30;4.63;;;16.00;99.90;;;;;;5036354;28;20026;-72
2023/05/07 07:44:44;;;;;;;12.80;4.35;;;16.00;99.90;;;;;;5036535;28;20029;-72
2023/05/07 07:47:10;;;;;;;17.88;4.93;;;16.00;99.90;;;;;;5036433;28;20406;-72
2023/05/07 07:49:35;;;;;;;15.07;5.40;;;15.90;99.90;;;;;;5035005;28;20029;-71
2023/05/07 07:52:01;;;;;;;11.70;4.60;;;15.90;99.90;;;;;;5036500;28;20405;-71
2023/05/07 07:54:27;;;;;;;13.48;4.65;;;16.00;99.90;;;;;;5035281;28;20071;-71
2023/05/07 07:56:52;;;;;;;20.65;6.22;;;16.00;99.90;;;;;;5030873;28;20025;-71
2023/05/07 07:59:18;;;;;;;17.15;5.32;;;16.00;99.90;;;;;;5030627;28;20033;-71
2023/05/07 08:01:44;;;;;;;12.35;5.70;;;16.10;99.90;;;;;;5018867;28;20037;-71
2023/05/07 08:04:10;;;;;;;14.18;5.32;;;16.10;99.90;;;;;;5031202;28;20028;-70
2023/05/07 08:06:36;;;;;;;16.88;4.97;;;16.20;99.90;;;;;;5035095;28;20021;-70
2023/05/07 08:09:02;;;;;;;12.52;4.72;;;16.30;99.90;;;;;;5035991;28;20030;-71
2023/05/07 08:11:28;;;;;;;16.20;4.95;;;16.30;99.90;;;;;;5037431;28;20024;-71
2023/05/07 08:13:54;;;;;;;10.98;3.92;;;16.40;99.90;;;;;;5038338;28;20025;-70
2023/05/07 08:16:21;;;;;;;18.13;6.25;;;16.40;99.90;;;;;;5039998;28;20022;-71
2023/05/07 08:18:46;;;;;;;11.75;5.63;;;16.40;99.90;;;;;;5039159;28;20058;-70
2023/05/07 08:21:12;;;;;;;15.52;5.13;;;16.30;99.90;;;;;;5039658;28;20033;-71
2023/05/07 08:23:38;;;;;;;16.83;5.05;;;16.40;99.90;;;;;;5038362;28;20029;-70
2023/05/07 08:26:03;;;;;;;18.40;5.05;;;16.40;99.90;;;;;;5027639;28;20505;-70
2023/05/07 08:28:29;;;;;;;12.70;5.57;;;16.40;99.90;;;;;;5039428;28;20037;-70
2023/05/07 08:30:56;;;;;;;16.67;5.28;;;16.30;99.90;;;;;;5039715;28;20032;-71
2023/05/07 08:33:22;;;;;;;18.70;4.32;;;16.30;99.90;;;;;;5037754;28;20033;-70
2023/05/07 08:35:48;;;;;;;15.00;5.35;;;16.30;99.90;;;;;;5039696;28;20025;-70
2023/05/07 08:38:13;;;;;;;19.38;5.55;;;16.30;99.90;;;;;;5039228;28;20033;-72
2023/05/07 08:40:40;;;;;;;21.35;6.15;;;16.20;99.90;;;;;;5039723;28;20040;-71
2023/05/07 08:43:06;;;;;;;13.70;5.82;;;16.20;99.90;;;;;;5037961;28;20470;-71
2023/05/07 08:45:33;;;;;;;16.65;5.65;;;16.20;99.90;;;;;;5038245;28;20096;-71
2023/05/07 08:48:03;;;;;;;17.55;5.38;;;16.10;99.90;;;;;;5037612;28;20870;-71
2023/05/07 08:50:29;;;;;;;16.85;5.88;;;16.20;99.90;;;;;;5039531;28;20109;-70
2023/05/07 08:52:56;;;;;;;12.98;5.45;;;16.20;99.90;;;;;;5032944;28;20033;-71
2023/05/07 08:55:23;;;;;;;26.17;7.45;;;16.30;99.90;;;;;;5037491;28;20025;-71
2023/05/07 08:57:49;;;;;;;13.93;5.43;;;16.40;99.90;;;;;;5038785;28;20029;-71
2023/05/07 09:00:15;;;;;;;23.25;5.38;;;16.50;99.90;;;;;;5039408;28;20032;-71
2023/05/07 09:02:41;;;;;;;16.10;4.85;;;16.60;99.90;;;;;;5035859;28;20013;-71
2023/05/07 09:05:08;;;;;;;14.50;5.38;;;16.80;99.90;;;;;;5038754;28;20025;-70
2023/05/07 09:07:34;;;;;;;13.30;4.22;;;17.00;99.90;;;;;;5038816;28;20029;-71
2023/05/07 09:10:05;;;;;;;14.38;4.10;;;17.00;99.90;;;;;;5037745;28;20076;-71
2023/05/07 09:12:30;;;;;;;15.77;4.57;;;17.10;99.90;;;;;;5037649;28;20021;-71
2023/05/07 09:14:56;;;;;;;13.65;4.53;;;17.00;99.90;;;;;;5037642;28;20055;-71
2023/05/07 09:17:22;;;;;;;14.40;4.55;;;17.00;99.90;;;;;;5036274;28;20517;-70
2023/05/07 09:19:47;;;;;;;13.63;4.30;;;17.00;99.90;;;;;;5038246;28;20075;-71
2023/05/07 09:22:13;;;;;;;14.25;5.07;;;17.00;99.90;;;;;;5036200;28;20100;-70
2023/05/07 09:24:39;;;;;;;18.20;4.40;;;17.00;99.90;;;;;;5038663;28;20010;-71
2023/05/07 09:27:06;;;;;;;14.48;4.90;;;17.00;99.90;;;;;;5038510;28;20075;-71
2023/05/07 09:29:35;;;;;;;13.80;5.13;;;17.20;99.90;;;;;;5030466;28;20018;-71
2023/05/07 09:32:06;;;;;;;11.85;4.78;;;17.30;99.90;;;;;;5038308;28;20073;-71
2023/05/07 09:34:33;;;;;;;11.32;3.90;;;17.30;99.90;;;;;;5033529;28;20466;-71
2023/05/07 09:37:03;;;;;;;18.52;4.68;;;17.40;99.90;;;;;;5038420;28;20091;-71
2023/05/07 09:39:48;;;;;;;13.45;4.63;;;17.40;99.90;;;;;;5038202;28;20137;-71
2023/05/07 09:42:14;;;;;;;13.52;4.35;;;17.30;99.90;;;;;;5036296;28;20029;-70
2023/05/07 09:44:40;;;;;;;12.35;5.05;;;17.20;99.90;;;;;;5033846;28;20151;-71
2023/05/07 09:47:07;;;;;;;10.48;4.45;;;17.20;99.90;;;;;;5038141;28;20033;-71
2023/05/07 09:49:38;;;;;;;12.43;4.18;;;17.30;99.90;;;;;;5037675;28;20025;-70
2023/05/07 09:52:06;;;;;;;13.75;5.30;;;17.20;99.90;;;;;;5028137;28;20028;-70
2023/05/07 09:54:33;;;;;;;11.63;4.32;;;17.30;99.90;;;;;;5037806;28;20031;-70
2023/05/07 09:57:02;;;;;;;11.48;4.25;;;17.40;99.90;;;;;;5038214;28;20052;-71
2023/05/07 09:59:28;;;;;;;16.25;4.20;;;17.60;99.90;;;;;;5024489;28;20018;-69
2023/05/07 10:01:58;;;;;;;10.18;3.85;;;17.70;99.90;;;;;;5031793;28;20508;-70
2023/05/07 10:04:28;;;;;;;11.35;3.97;;;17.90;99.90;;;;;;5033503;28;20072;-69
2023/05/07 10:06:55;;;;;;;12.88;4.03;;;18.10;99.90;;;;;;5027944;28;20509;-70
2023/05/07 10:09:21;;;;;;;9.93;4.80;;;18.20;99.90;;;;;;5036115;28;20437;-70
2023/05/07 10:11:49;;;;;;;12.32;4.30;;;18.50;99.90;;;;;;5036463;28;20045;-69
2023/05/07 10:14:15;;;;;;;12.60;4.13;;;18.60;99.90;;;;;;5036088;28;20047;-69
2023/05/07 10:16:41;;;;;;;12.25;3.85;;;18.90;99.90;;;;;;5036005;28;20565;-71
2023/05/07 10:19:12;;;;;;;7.75;3.80;;;19.10;99.90;;;;;;5033354;28;20029;-70
2023/05/07 10:21:39;;;;;;;10.18;4.68;;;19.20;99.90;;;;;;5036504;28;20029;-70
2023/05/07 10:24:19;;;;;;;17.33;4.43;;;19.40;99.90;;;;;;5036112;28;20024;-70
2023/05/07 10:26:48;;;;;;;14.82;3.72;;;19.40;99.90;;;;;;5034734;28;20032;-69
2023/05/07 10:29:29;;;;;;;13.43;3.92;;;19.40;99.90;;;;;;5046256;28;20033;-70
2023/05/07 10:32:19;;;;;;;11.68;4.50;;;19.40;99.90;;;;;;5029940;28;20392;-70
2023/05/07 10:34:47;;;;;;;15.30;4.13;;;19.20;99.90;;;;;;5032488;28;20029;-69
2023/05/07 10:37:13;;;;;;;11.80;4.18;;;19.10;99.90;;;;;;5033478;28;20283;-69
2023/05/07 10:39:40;;;;;;;9.25;3.47;;;18.90;99.90;;;;;;5027101;28;20055;-69
2023/05/07 10:42:13;;;;;;;15.00;3.65;;;18.70;99.90;;;;;;5037010;28;20021;-71
2023/05/07 10:44:39;;;;;;;8.90;4.35;;;18.40;99.90;;;;;;5037202;28;20048;-69
2023/05/07 10:47:09;;;;;;;16.25;4.20;;;18.20;99.90;;;;;;5033974;28;20022;-71
2023/05/07 10:49:36;;;;;;;10.20;4.20;;;18.00;99.90;;;;;;5036989;28;20041;-69
2023/05/07 10:52:24;;;;;;;10.57;4.03;;;17.90;99.90;;;;;;5030147;28;20112;-69
2023/05/07 10:55:17;;;;;;;14.85;4.43;;;17.70;99.90;;;;;;5036300;28;20047;-69
2023/05/07 10:57:43;;;;;;;13.80;4.65;;;17.60;99.90;;;;;;5036725;28;20021;-71
2023/05/07 11:00:23;;;;;;;16.15;4.15;;;17.50;99.90;;;;;;5036966;28;20517;-69
2023/05/07 11:03:06;;;;;;;15.07;4.40;;;17.40;99.90;;;;;;5036806;28;20440;-69
2023/05/07 11:05:33;;;;;;;12.20;4.22;;;17.30;99.90;;;;;;5037009;28;20437;-69
2023/05/07 11:08:00;;;;;;;11.23;4.35;;;17.30;99.90;;;;;;5036770;28;20517;-71
2023/05/07 11:10:51;;;;;;;10.65;4.43;;;17.30;99.90;;;;;;5036646;28;20038;-69
2023/05/07 11:13:17;;;;;;;15.43;5.00;;;17.40;99.90;;;;;;5036730;28;20055;-69
2023/05/07 11:15:46;;;;;;;13.20;5.43;;;17.50;99.90;;;;;;5036719;28;20438;-69
2023/05/07 11:18:16;;;;;;;17.27;4.90;;;17.80;99.90;;;;;;5036064;28;20077;-69
2023/05/07 11:20:52;;;;;;;14.43;5.15;;;18.00;99.90;;;;;;5035354;28;20497;-69
2023/05/07 11:23:33;;;;;;;14.55;5.10;;;18.20;99.90;;;;;;5030061;28;20086;-69
2023/05/07 11:26:09;;;;;;;10.88;4.15;;;18.40;99.90;;;;;;5035270;28;20030;-69
2023/05/07 11:28:40;;;;;;;12.90;3.80;;;18.70;99.90;;;;;;5034495;28;20045;-70
2023/05/07 11:31:07;;;;;;;11.93;4.00;;;19.10;99.90;;;;;;5036871;28;20018;-71
2023/05/07 11:33:33;;;;;;;12.02;4.25;;;19.30;99.90;;;;;;5036264;28;20049;-69
2023/05/07 11:36:00;;;;;;;10.35;3.35;;;19.60;99.90;;;;;;5036621;28;20195;-69
2023/05/07 11:38:25;;;;;;;10.50;3.35;;;19.90;99.90;;;;;;5036448;28;20485;-68
2023/05/07 11:41:00;;;;;;;11.48;3.95;;;20.10;99.90;;;;;;5036793;28;20163;-69
2023/05/07 11:43:26;;;;;;;10.45;3.13;;;20.00;99.90;;;;;;5035092;28;20501;-70
2023/05/07 11:45:52;;;;;;;10.32;2.90;;;19.80;99.90;;;;;;5038038;28;20503;-70
2023/05/07 11:48:20;;;;;;;9.65;2.88;;;19.70;99.90;;;;;;5039258;28;20021;-69
2023/05/07 11:51:02;;;;;;;9.25;2.85;;;19.50;99.90;;;;;;5045522;28;20022;-68
2023/05/07 11:53:36;;;;;;;10.60;2.67;;;19.30;99.90;;;;;;5027815;28;20433;-68
2023/05/07 11:56:10;;;;;;;12.55;3.47;;;19.40;99.90;;;;;;5043491;28;20071;-69
2023/05/07 11:58:36;;;;;;;7.70;3.17;;;19.50;99.90;;;;;;5039770;28;20026;-69
2023/05/07 12:01:02;;;;;;;15.15;4.03;;;19.80;99.90;;;;;;5039901;28;20035;-68
2023/05/07 12:03:28;;;;;;;11.98;3.97;;;19.90;99.90;;;;;;5040018;28;20021;-69
2023/05/07 12:05:53;;;;;;;8.15;3.58;;;19.90;99.90;;;;;;5040118;28;20021;-69
2023/05/07 12:08:21;;;;;;;8.52;3.10;;;19.80;99.90;;;;;;5040221;28;20394;-69
2023/05/07 12:10:49;;;;;;;7.63;3.05;;;19.90;99.90;;;;;;5039486;28;20030;-69
2023/05/07 12:13:24;;;;;;;9.57;2.88;;;20.10;99.90;;;;;;5038977;28;20037;-68
2023/05/07 12:15:54;;;;;;;13.52;4.60;;;20.40;99.90;;;;;;5039693;28;20086;-69
2023/05/07 12:18:20;;;;;;;11.63;3.38;;;20.50;99.90;;;;;;5038787;28;20057;-69
2023/05/07 12:20:46;;;;;;;10.80;2.65;;;20.20;99.90;;;;;;5039074;28;20028;-69
2023/05/07 12:23:13;;;;;;;9.93;3.53;;;20.30;99.90;;;;;;5038607;28;20489;-70
2023/05/07 12:25:46;;;;;;;9.65;3.38;;;20.50;99.90;;;;;;5036047;28;20087;-70
2023/05/07 12:28:16;;;;;;;8.88;3.92;;;21.00;99.90;;;;;;5040586;28;20184;-70
2023/05/07 12:30:44;;;;;;;17.13;3.75;;;21.20;99.90;;;;;;5023732;28;20018;-69
2023/05/07 12:33:10;;;;;;;11.07;3.47;;;21.00;99.90;;;;;;5024262;28;20041;-69
2023/05/07 12:35:41;;;;;;;8.05;3.10;;;20.70;99.90;;;;;;5028099;28;20132;-70
2023/05/07 12:38:08;;;;;;;12.35;3.47;;;20.60;99.90;;;;;;5028305;28;20453;-69